sensor_id;sensor_type;location;lat;lon;timestamp;pressure;altitude;pressure_sealevel;temperature;humidity
74403;BME280;62837;51.082;13.744;2022-10-16T00:02:00;100109.69;;;16.70;74.49
74403;BME280;62837;51.082;13.744;2022-10-16T00:04:31;100106.63;;;16.68;74.45
74403;BME280;62837;51.082;13.744;2022-10-16T00:07:02;100106.71;;;16.67;74.51
74403;BME280;62837;51.082;13.744;2022-10-16T00:09:33;100107.77;;;16.67;74.52
74403;BME280;62837;51.082;13.744;2022-10-16T00:12:04;100115.64;;;16.69;74.47
74403;BME280;62837;51.082;13.744;2022-10-16T00:14:34;100118.46;;;16.70;74.47
74403;BME280;62837;51.082;13.744;2022-10-16T00:17:05;100119.17;;;16.70;74.52
74403;BME280;62837;51.082;13.744;2022-10-16T00:19:35;100119.14;;;16.69;74.70
74403;BME280;62837;51.082;13.744;2022-10-16T00:22:06;100125.02;;;16.68;74.71
74403;BME280;62837;51.082;13.744;2022-10-16T00:24:37;100132.11;;;16.68;74.71
74403;BME280;62837;51.082;13.744;2022-10-16T00:27:08;100138.19;;;16.69;74.63
74403;BME280;62837;51.082;13.744;2022-10-16T00:29:39;100135.52;;;16.70;74.51
74403;BME280;62837;51.082;13.744;2022-10-16T00:32:09;100133.52;;;16.67;74.56
74403;BME280;62837;51.082;13.744;2022-10-16T00:34:40;100138.09;;;16.63;74.41
74403;BME280;62837;51.082;13.744;2022-10-16T00:37:11;100133.61;;;16.59;74.57
74403;BME280;62837;51.082;13.744;2022-10-16T00:39:41;100127.62;;;16.58;74.64
74403;BME280;62837;51.082;13.744;2022-10-16T00:42:16;100131.23;;;16.58;74.68
74403;BME280;62837;51.082;13.744;2022-10-16T00:44:50;100140.59;;;16.59;74.53
74403;BME280;62837;51.082;13.744;2022-10-16T00:47:26;100137.72;;;16.58;74.79
74403;BME280;62837;51.082;13.744;2022-10-16T00:50:02;100139.28;;;16.59;74.83
74403;BME280;62837;51.082;13.744;2022-10-16T00:52:36;100143.42;;;16.59;74.81
74403;BME280;62837;51.082;13.744;2022-10-16T00:55:09;100144.27;;;16.58;74.76
74403;BME280;62837;51.082;13.744;2022-10-16T00:57:41;100150.23;;;16.60;74.80
74403;BME280;62837;51.082;13.744;2022-10-16T01:00:16;100150.29;;;16.64;74.78
74403;BME280;62837;51.082;13.744;2022-10-16T01:02:54;100149.08;;;16.67;74.78
74403;BME280;62837;51.082;13.744;2022-10-16T01:05:28;100147.59;;;16.69;74.75
74403;BME280;62837;51.082;13.744;2022-10-16T01:08:08;100147.06;;;16.71;74.71
74403;BME280;62837;51.082;13.744;2022-10-16T01:10:46;100147.79;;;16.70;74.82
74403;BME280;62837;51.082;13.744;2022-10-16T01:13:21;100144.42;;;16.69;74.86
74403;BME280;62837;51.082;13.744;2022-10-16T01:15:55;100149.17;;;16.70;74.85
74403;BME280;62837;51.082;13.744;2022-10-16T01:18:33;100149.41;;;16.72;74.75
74403;BME280;62837;51.082;13.744;2022-10-16T01:21:07;100150.95;;;16.76;74.76
74403;BME280;62837;51.082;13.744;2022-10-16T01:23:45;100147.83;;;16.78;74.67
74403;BME280;62837;51.082;13.744;2022-10-16T01:26:35;100151.16;;;16.79;74.57
74403;BME280;62837;51.082;13.744;2022-10-16T01:29:12;100148.84;;;16.79;74.53
74403;BME280;62837;51.082;13.744;2022-10-16T01:31:50;100155.04;;;16.77;74.56
74403;BME280;62837;51.082;13.744;2022-10-16T01:34:31;100155.26;;;16.78;74.50
74403;BME280;62837;51.082;13.744;2022-10-16T01:37:07;100155.16;;;16.80;74.45
74403;BME280;62837;51.082;13.744;2022-10-16T01:39:41;100162.92;;;16.81;74.58
74403;BME280;62837;51.082;13.744;2022-10-16T01:42:18;100163.69;;;16.82;74.63
74403;BME280;62837;51.082;13.744;2022-10-16T01:44:52;100166.85;;;16.82;74.71
74403;BME280;62837;51.082;13.744;2022-10-16T01:47:25;100164.94;;;16.80;74.79
74403;BME280;62837;51.082;13.744;2022-10-16T01:50:00;100165.31;;;16.80;74.69
74403;BME280;62837;51.082;13.744;2022-10-16T01:52:35;100160.21;;;16.79;74.62
74403;BME280;62837;51.082;13.744;2022-10-16T01:55:10;100161.39;;;16.79;74.54
74403;BME280;62837;51.082;13.744;2022-10-16T01:57:46;100156.20;;;16.82;74.72
74403;BME280;62837;51.082;13.744;2022-10-16T02:00:20;100152.42;;;16.82;74.71
74403;BME280;62837;51.082;13.744;2022-10-16T02:02:54;100156.42;;;16.81;74.73
74403;BME280;62837;51.082;13.744;2022-10-16T02:05:28;100159.52;;;16.78;74.67
74403;BME280;62837;51.082;13.744;2022-10-16T02:08:00;100165.73;;;16.79;74.65
74403;BME280;62837;51.082;13.744;2022-10-16T02:10:35;100167.85;;;16.78;74.61
74403;BME280;62837;51.082;13.744;2022-10-16T02:13:10;100171.94;;;16.79;74.82
74403;BME280;62837;51.082;13.744;2022-10-16T02:15:41;100171.94;;;16.79;74.70
74403;BME280;62837;51.082;13.744;2022-10-16T02:18:12;100173.84;;;16.79;74.71
74403;BME280;62837;51.082;13.744;2022-10-16T02:20:44;100173.77;;;16.77;74.75
74403;BME280;62837;51.082;13.744;2022-10-16T02:23:24;100179.76;;;16.74;74.83
74403;BME280;62837;51.082;13.744;2022-10-16T02:26:00;100176.96;;;16.73;74.81
74403;BME280;62837;51.082;13.744;2022-10-16T02:28:38;100181.23;;;16.72;74.91
74403;BME280;62837;51.082;13.744;2022-10-16T02:31:13;100174.48;;;16.71;74.89
74403;BME280;62837;51.082;13.744;2022-10-16T02:33:47;100174.89;;;16.70;74.92
74403;BME280;62837;51.082;13.744;2022-10-16T02:36:18;100173.91;;;16.68;75.00
74403;BME280;62837;51.082;13.744;2022-10-16T02:38:49;100170.10;;;16.68;74.97
74403;BME280;62837;51.082;13.744;2022-10-16T02:41:22;100169.64;;;16.68;75.03
74403;BME280;62837;51.082;13.744;2022-10-16T02:43:53;100172.71;;;16.71;75.05
74403;BME280;62837;51.082;13.744;2022-10-16T02:46:24;100178.25;;;16.74;74.78
74403;BME280;62837;51.082;13.744;2022-10-16T02:48:55;100180.09;;;16.77;74.76
74403;BME280;62837;51.082;13.744;2022-10-16T02:51:25;100172.27;;;16.78;74.76
74403;BME280;62837;51.082;13.744;2022-10-16T02:53:56;100173.21;;;16.78;74.85
74403;BME280;62837;51.082;13.744;2022-10-16T02:56:27;100165.11;;;16.76;74.85
74403;BME280;62837;51.082;13.744;2022-10-16T02:58:59;100164.84;;;16.76;74.79
74403;BME280;62837;51.082;13.744;2022-10-16T03:01:29;100166.58;;;16.78;74.82
74403;BME280;62837;51.082;13.744;2022-10-16T03:04:00;100169.63;;;16.82;74.80
74403;BME280;62837;51.082;13.744;2022-10-16T03:06:31;100163.11;;;16.86;74.73
74403;BME280;62837;51.082;13.744;2022-10-16T03:09:02;100162.25;;;16.87;74.76
74403;BME280;62837;51.082;13.744;2022-10-16T03:11:32;100163.66;;;16.89;74.69
74403;BME280;62837;51.082;13.744;2022-10-16T03:14:03;100163.91;;;16.88;74.61
74403;BME280;62837;51.082;13.744;2022-10-16T03:16:34;100170.20;;;16.89;74.76
74403;BME280;62837;51.082;13.744;2022-10-16T03:19:05;100171.80;;;16.90;74.63
74403;BME280;62837;51.082;13.744;2022-10-16T03:21:35;100171.23;;;16.90;74.56
74403;BME280;62837;51.082;13.744;2022-10-16T03:24:07;100181.14;;;16.87;74.51
74403;BME280;62837;51.082;13.744;2022-10-16T03:26:38;100187.17;;;16.82;74.65
74403;BME280;62837;51.082;13.744;2022-10-16T03:29:09;100184.20;;;16.77;74.77
74403;BME280;62837;51.082;13.744;2022-10-16T03:31:39;100187.13;;;16.75;74.90
74403;BME280;62837;51.082;13.744;2022-10-16T03:34:10;100188.46;;;16.74;74.99
74403;BME280;62837;51.082;13.744;2022-10-16T03:36:41;100184.88;;;16.77;74.96
74403;BME280;62837;51.082;13.744;2022-10-16T03:39:11;100190.89;;;16.79;74.87
74403;BME280;62837;51.082;13.744;2022-10-16T03:41:42;100187.63;;;16.82;75.02
74403;BME280;62837;51.082;13.744;2022-10-16T03:44:13;100184.16;;;16.83;74.79
74403;BME280;62837;51.082;13.744;2022-10-16T03:46:43;100190.73;;;16.82;74.79
74403;BME280;62837;51.082;13.744;2022-10-16T03:49:14;100195.91;;;16.81;74.85
74403;BME280;62837;51.082;13.744;2022-10-16T03:51:45;100195.52;;;16.81;74.91
74403;BME280;62837;51.082;13.744;2022-10-16T03:54:16;100197.95;;;16.82;74.83
74403;BME280;62837;51.082;13.744;2022-10-16T03:56:46;100198.83;;;16.83;74.87
74403;BME280;62837;51.082;13.744;2022-10-16T03:59:17;100191.46;;;16.78;74.79
74403;BME280;62837;51.082;13.744;2022-10-16T04:01:48;100203.38;;;16.84;74.94
74403;BME280;62837;51.082;13.744;2022-10-16T04:04:19;100205.27;;;16.83;74.90
74403;BME280;62837;51.082;13.744;2022-10-16T04:06:50;100204.52;;;16.82;74.88
74403;BME280;62837;51.082;13.744;2022-10-16T04:09:20;100206.38;;;16.79;74.81
74403;BME280;62837;51.082;13.744;2022-10-16T04:11:51;100207.44;;;16.78;74.81
74403;BME280;62837;51.082;13.744;2022-10-16T04:14:22;100208.92;;;16.79;74.83
74403;BME280;62837;51.082;13.744;2022-10-16T04:16:52;100214.15;;;16.79;74.83
74403;BME280;62837;51.082;13.744;2022-10-16T04:19:23;100221.06;;;16.78;74.80
74403;BME280;62837;51.082;13.744;2022-10-16T04:21:54;100228.31;;;16.76;74.78
74403;BME280;62837;51.082;13.744;2022-10-16T04:24:25;100226.95;;;16.72;74.79
74403;BME280;62837;51.082;13.744;2022-10-16T04:26:55;100227.58;;;16.70;74.92
74403;BME280;62837;51.082;13.744;2022-10-16T04:29:26;100225.33;;;16.72;74.91
74403;BME280;62837;51.082;13.744;2022-10-16T04:31:57;100224.43;;;16.76;75.08
74403;BME280;62837;51.082;13.744;2022-10-16T04:34:28;100220.64;;;16.77;74.98
74403;BME280;62837;51.082;13.744;2022-10-16T04:36:58;100224.52;;;16.77;74.87
74403;BME280;62837;51.082;13.744;2022-10-16T04:39:29;100225.64;;;16.76;75.12
74403;BME280;62837;51.082;13.744;2022-10-16T04:42:00;100235.48;;;16.75;74.90
74403;BME280;62837;51.082;13.744;2022-10-16T04:44:30;100233.73;;;16.74;74.84
74403;BME280;62837;51.082;13.744;2022-10-16T04:47:01;100233.21;;;16.69;74.76
74403;BME280;62837;51.082;13.744;2022-10-16T04:49:32;100238.35;;;16.68;75.01
74403;BME280;62837;51.082;13.744;2022-10-16T04:52:02;100240.20;;;16.67;75.07
74403;BME280;62837;51.082;13.744;2022-10-16T04:54:33;100240.32;;;16.66;75.20
74403;BME280;62837;51.082;13.744;2022-10-16T04:57:04;100232.15;;;16.66;74.76
74403;BME280;62837;51.082;13.744;2022-10-16T04:59:35;100231.20;;;16.67;74.54
74403;BME280;62837;51.082;13.744;2022-10-16T05:02:06;100229.48;;;16.69;74.46
74403;BME280;62837;51.082;13.744;2022-10-16T05:04:37;100229.13;;;16.71;74.45
74403;BME280;62837;51.082;13.744;2022-10-16T05:07:07;100234.39;;;16.74;74.51
74403;BME280;62837;51.082;13.744;2022-10-16T05:09:38;100236.36;;;16.76;74.45
74403;BME280;62837;51.082;13.744;2022-10-16T05:12:09;100241.18;;;16.80;74.26
74403;BME280;62837;51.082;13.744;2022-10-16T05:14:39;100242.98;;;16.83;74.29
74403;BME280;62837;51.082;13.744;2022-10-16T05:17:10;100237.48;;;16.84;74.24
74403;BME280;62837;51.082;13.744;2022-10-16T05:19:41;100232.92;;;16.83;74.06
74403;BME280;62837;51.082;13.744;2022-10-16T05:22:11;100240.70;;;16.86;74.12
74403;BME280;62837;51.082;13.744;2022-10-16T05:24:42;100250.29;;;16.84;74.16
74403;BME280;62837;51.082;13.744;2022-10-16T05:27:13;100251.20;;;16.79;74.22
74403;BME280;62837;51.082;13.744;2022-10-16T05:29:48;100254.84;;;16.75;74.37
74403;BME280;62837;51.082;13.744;2022-10-16T05:32:19;100261.24;;;16.69;74.43
74403;BME280;62837;51.082;13.744;2022-10-16T05:34:52;100261.69;;;16.67;74.59
74403;BME280;62837;51.082;13.744;2022-10-16T05:37:22;100258.05;;;16.62;74.53
74403;BME280;62837;51.082;13.744;2022-10-16T05:39:53;100254.27;;;16.56;74.71
74403;BME280;62837;51.082;13.744;2022-10-16T05:42:24;100247.19;;;16.51;74.74
74403;BME280;62837;51.082;13.744;2022-10-16T05:44:55;100248.83;;;16.47;75.00
74403;BME280;62837;51.082;13.744;2022-10-16T05:47:26;100256.31;;;16.42;75.15
74403;BME280;62837;51.082;13.744;2022-10-16T05:49:57;100264.30;;;16.39;75.15
74403;BME280;62837;51.082;13.744;2022-10-16T05:52:29;100272.40;;;16.37;75.31
74403;BME280;62837;51.082;13.744;2022-10-16T05:54:59;100280.19;;;16.35;75.38
74403;BME280;62837;51.082;13.744;2022-10-16T05:57:30;100285.83;;;16.33;75.40
74403;BME280;62837;51.082;13.744;2022-10-16T06:00:01;100295.67;;;16.31;75.53
74403;BME280;62837;51.082;13.744;2022-10-16T06:02:52;100291.05;;;16.25;75.61
74403;BME280;62837;51.082;13.744;2022-10-16T06:05:24;100290.94;;;16.21;75.75
74403;BME280;62837;51.082;13.744;2022-10-16T06:07:54;100295.45;;;16.19;75.85
74403;BME280;62837;51.082;13.744;2022-10-16T06:10:25;100289.81;;;16.19;75.98
74403;BME280;62837;51.082;13.744;2022-10-16T06:12:57;100293.67;;;16.24;75.94
74403;BME280;62837;51.082;13.744;2022-10-16T06:15:27;100297.27;;;16.28;76.02
74403;BME280;62837;51.082;13.744;2022-10-16T06:17:58;100302.10;;;16.31;76.15
74403;BME280;62837;51.082;13.744;2022-10-16T06:20:29;100308.77;;;16.34;76.13
74403;BME280;62837;51.082;13.744;2022-10-16T06:22:59;100313.46;;;16.37;76.07
74403;BME280;62837;51.082;13.744;2022-10-16T06:25:30;100320.15;;;16.39;75.96
74403;BME280;62837;51.082;13.744;2022-10-16T06:28:01;100321.70;;;16.43;75.89
74403;BME280;62837;51.082;13.744;2022-10-16T06:30:32;100330.86;;;16.50;75.96
74403;BME280;62837;51.082;13.744;2022-10-16T06:33:02;100323.86;;;16.54;75.94
74403;BME280;62837;51.082;13.744;2022-10-16T06:35:33;100317.89;;;16.58;75.91
74403;BME280;62837;51.082;13.744;2022-10-16T06:38:04;100321.09;;;16.59;75.89
74403;BME280;62837;51.082;13.744;2022-10-16T06:40:34;100327.02;;;16.61;75.76
74403;BME280;62837;51.082;13.744;2022-10-16T06:43:05;100328.56;;;16.63;75.80
74403;BME280;62837;51.082;13.744;2022-10-16T06:45:36;100330.01;;;16.66;75.65
74403;BME280;62837;51.082;13.744;2022-10-16T06:48:06;100330.99;;;16.70;75.62
74403;BME280;62837;51.082;13.744;2022-10-16T06:50:37;100337.86;;;16.74;75.59
74403;BME280;62837;51.082;13.744;2022-10-16T06:53:08;100341.60;;;16.77;75.55
74403;BME280;62837;51.082;13.744;2022-10-16T06:55:38;100340.88;;;16.77;75.52
74403;BME280;62837;51.082;13.744;2022-10-16T06:58:09;100347.31;;;16.81;75.45
74403;BME280;62837;51.082;13.744;2022-10-16T07:00:40;100349.87;;;16.88;75.33
74403;BME280;62837;51.082;13.744;2022-10-16T07:03:10;100349.36;;;16.92;75.34
74403;BME280;62837;51.082;13.744;2022-10-16T07:05:42;100353.31;;;16.95;75.38
74403;BME280;62837;51.082;13.744;2022-10-16T07:08:13;100357.86;;;16.95;75.32
74403;BME280;62837;51.082;13.744;2022-10-16T07:10:43;100359.27;;;16.94;75.31
74403;BME280;62837;51.082;13.744;2022-10-16T07:13:14;100364.98;;;16.91;75.37
74403;BME280;62837;51.082;13.744;2022-10-16T07:15:45;100363.88;;;16.92;75.34
74403;BME280;62837;51.082;13.744;2022-10-16T07:18:15;100368.30;;;16.96;75.39
74403;BME280;62837;51.082;13.744;2022-10-16T07:20:46;100364.44;;;17.01;75.13
74403;BME280;62837;51.082;13.744;2022-10-16T07:23:17;100371.17;;;17.04;75.21
74403;BME280;62837;51.082;13.744;2022-10-16T07:25:54;100374.16;;;17.04;75.17
74403;BME280;62837;51.082;13.744;2022-10-16T07:28:25;100382.15;;;17.04;75.20
74403;BME280;62837;51.082;13.744;2022-10-16T07:30:59;100394.73;;;17.04;75.21
74403;BME280;62837;51.082;13.744;2022-10-16T07:33:30;100397.43;;;17.04;75.15
74403;BME280;62837;51.082;13.744;2022-10-16T07:36:01;100408.02;;;17.07;75.21
74403;BME280;62837;51.082;13.744;2022-10-16T07:38:32;100414.09;;;17.09;75.36
74403;BME280;62837;51.082;13.744;2022-10-16T07:41:04;100422.61;;;17.08;75.43
74403;BME280;62837;51.082;13.744;2022-10-16T07:43:35;100424.58;;;17.08;75.52
74403;BME280;62837;51.082;13.744;2022-10-16T07:46:07;100425.58;;;17.07;75.51
74403;BME280;62837;51.082;13.744;2022-10-16T07:48:37;100428.10;;;17.09;75.45
74403;BME280;62837;51.082;13.744;2022-10-16T07:51:08;100435.19;;;17.10;75.37
74403;BME280;62837;51.082;13.744;2022-10-16T07:53:39;100438.47;;;17.11;75.38
74403;BME280;62837;51.082;13.744;2022-10-16T07:56:10;100436.92;;;17.10;75.49
74403;BME280;62837;51.082;13.744;2022-10-16T07:58:42;100430.27;;;17.09;75.47
74403;BME280;62837;51.082;13.744;2022-10-16T08:01:15;100431.75;;;17.10;75.53
74403;BME280;62837;51.082;13.744;2022-10-16T08:03:47;100428.17;;;17.15;75.42
74403;BME280;62837;51.082;13.744;2022-10-16T08:06:20;100430.30;;;17.21;75.40
74403;BME280;62837;51.082;13.744;2022-10-16T08:08:55;100422.42;;;17.27;75.27
74403;BME280;62837;51.082;13.744;2022-10-16T08:11:26;100410.61;;;17.33;75.16
74403;BME280;62837;51.082;13.744;2022-10-16T08:13:57;100395.75;;;17.40;75.15
74403;BME280;62837;51.082;13.744;2022-10-16T08:16:27;100405.50;;;17.58;74.94
74403;BME280;62837;51.082;13.744;2022-10-16T08:18:58;100416.33;;;17.59;74.77
74403;BME280;62837;51.082;13.744;2022-10-16T08:21:29;100418.16;;;17.60;74.50
74403;BME280;62837;51.082;13.744;2022-10-16T08:23:59;100421.00;;;17.60;74.39
74403;BME280;62837;51.082;13.744;2022-10-16T08:26:31;100414.82;;;17.60;74.30
74403;BME280;62837;51.082;13.744;2022-10-16T08:29:01;100412.58;;;17.62;74.19
74403;BME280;62837;51.082;13.744;2022-10-16T08:31:32;100416.34;;;17.66;74.22
74403;BME280;62837;51.082;13.744;2022-10-16T08:34:03;100422.58;;;17.69;74.15
74403;BME280;62837;51.082;13.744;2022-10-16T08:36:34;100422.27;;;17.73;73.88
74403;BME280;62837;51.082;13.744;2022-10-16T08:39:04;100421.61;;;17.82;73.97
74403;BME280;62837;51.082;13.744;2022-10-16T08:41:54;100433.06;;;17.91;73.96
74403;BME280;62837;51.082;13.744;2022-10-16T08:44:42;100435.16;;;18.01;73.83
74403;BME280;62837;51.082;13.744;2022-10-16T08:47:22;100430.38;;;18.10;73.63
74403;BME280;62837;51.082;13.744;2022-10-16T08:49:58;100431.45;;;18.18;73.41
74403;BME280;62837;51.082;13.744;2022-10-16T08:52:33;100432.00;;;18.26;73.12
74403;BME280;62837;51.082;13.744;2022-10-16T08:55:08;100426.80;;;18.35;72.94
74403;BME280;62837;51.082;13.744;2022-10-16T08:57:47;100422.00;;;18.52;72.75
74403;BME280;62837;51.082;13.744;2022-10-16T09:00:19;100420.39;;;18.83;72.35
74403;BME280;62837;51.082;13.744;2022-10-16T09:02:55;100420.56;;;19.12;71.24
74403;BME280;62837;51.082;13.744;2022-10-16T09:05:51;100421.17;;;19.51;70.30
74403;BME280;62837;51.082;13.744;2022-10-16T09:08:31;100425.27;;;19.93;69.44
74403;BME280;62837;51.082;13.744;2022-10-16T09:11:09;100423.52;;;20.28;68.67
74403;BME280;62837;51.082;13.744;2022-10-16T09:13:49;100416.77;;;20.59;67.80
74403;BME280;62837;51.082;13.744;2022-10-16T09:16:24;100410.98;;;20.86;66.88
74403;BME280;62837;51.082;13.744;2022-10-16T09:19:03;100413.62;;;21.12;66.06
74403;BME280;62837;51.082;13.744;2022-10-16T09:21:41;100409.66;;;21.24;65.31
74403;BME280;62837;51.082;13.744;2022-10-16T09:24:16;100419.27;;;21.35;65.17
74403;BME280;62837;51.082;13.744;2022-10-16T09:26:48;100423.05;;;21.57;64.51
74403;BME280;62837;51.082;13.744;2022-10-16T09:29:20;100432.34;;;21.78;64.14
74403;BME280;62837;51.082;13.744;2022-10-16T09:32:10;100434.42;;;21.91;63.94
74403;BME280;62837;51.082;13.744;2022-10-16T09:34:43;100428.13;;;21.89;62.83
74403;BME280;62837;51.082;13.744;2022-10-16T09:37:19;100433.59;;;21.81;63.26
74403;BME280;62837;51.082;13.744;2022-10-16T09:39:53;100437.08;;;21.64;63.22
74403;BME280;62837;51.082;13.744;2022-10-16T09:42:27;100445.02;;;21.51;63.49
74403;BME280;62837;51.082;13.744;2022-10-16T09:45:01;100444.54;;;21.38;63.66
74403;BME280;62837;51.082;13.744;2022-10-16T09:47:32;100441.65;;;21.26;63.81
74403;BME280;62837;51.082;13.744;2022-10-16T09:50:22;100443.07;;;21.13;63.71
74403;BME280;62837;51.082;13.744;2022-10-16T09:53:04;100441.48;;;21.01;63.81
74403;BME280;62837;51.082;13.744;2022-10-16T09:55:35;100442.17;;;20.90;64.13
74403;BME280;62837;51.082;13.744;2022-10-16T09:58:14;100446.70;;;20.83;64.14
74403;BME280;62837;51.082;13.744;2022-10-16T10:00:50;100454.55;;;20.92;64.21
74403;BME280;62837;51.082;13.744;2022-10-16T10:03:34;100454.79;;;20.97;64.34
74403;BME280;62837;51.082;13.744;2022-10-16T10:06:17;100460.21;;;21.03;64.74
74403;BME280;62837;51.082;13.744;2022-10-16T10:08:57;100460.27;;;21.06;64.85
74403;BME280;62837;51.082;13.744;2022-10-16T10:11:44;100460.73;;;21.08;64.63
74403;BME280;62837;51.082;13.744;2022-10-16T10:14:20;100456.77;;;21.09;64.45
74403;BME280;62837;51.082;13.744;2022-10-16T10:17:01;100459.52;;;21.10;64.33
74403;BME280;62837;51.082;13.744;2022-10-16T10:19:39;100464.31;;;21.17;64.11
74403;BME280;62837;51.082;13.744;2022-10-16T10:22:26;100470.59;;;21.20;63.72
74403;BME280;62837;51.082;13.744;2022-10-16T10:25:07;100475.92;;;21.19;63.86
74403;BME280;62837;51.082;13.744;2022-10-16T10:27:53;100478.73;;;21.16;64.06
74403;BME280;62837;51.082;13.744;2022-10-16T10:30:37;100483.65;;;21.16;64.41
74403;BME280;62837;51.082;13.744;2022-10-16T10:33:19;100481.40;;;21.22;64.70
74403;BME280;62837;51.082;13.744;2022-10-16T10:35:58;100477.09;;;21.34;64.85
74403;BME280;62837;51.082;13.744;2022-10-16T10:38:41;100475.31;;;21.38;64.46
74403;BME280;62837;51.082;13.744;2022-10-16T10:44:19;100477.55;;;21.45;63.44
74403;BME280;62837;51.082;13.744;2022-10-16T10:46:54;100475.17;;;21.41;63.16
74403;BME280;62837;51.082;13.744;2022-10-16T10:49:45;100479.11;;;21.38;62.80
74403;BME280;62837;51.082;13.744;2022-10-16T10:52:36;100485.94;;;21.38;63.15
74403;BME280;62837;51.082;13.744;2022-10-16T10:55:19;100491.21;;;21.36;63.11
74403;BME280;62837;51.082;13.744;2022-10-16T10:58:06;100491.11;;;21.36;63.15
74403;BME280;62837;51.082;13.744;2022-10-16T11:00:47;100496.14;;;21.36;62.97
74403;BME280;62837;51.082;13.744;2022-10-16T11:03:35;100490.78;;;21.38;63.00
74403;BME280;62837;51.082;13.744;2022-10-16T11:06:14;100486.45;;;21.37;62.26
74403;BME280;62837;51.082;13.744;2022-10-16T11:08:51;100480.48;;;21.39;62.36
74403;BME280;62837;51.082;13.744;2022-10-16T11:11:32;100478.27;;;21.45;62.84
74403;BME280;62837;51.082;13.744;2022-10-16T11:14:10;100476.57;;;21.55;62.32
74403;BME280;62837;51.082;13.744;2022-10-16T11:16:48;100482.55;;;21.57;61.71
74403;BME280;62837;51.082;13.744;2022-10-16T11:19:31;100482.33;;;21.55;61.53
74403;BME280;62837;51.082;13.744;2022-10-16T11:22:07;100482.09;;;21.54;60.86
74403;BME280;62837;51.082;13.744;2022-10-16T11:24:45;100481.52;;;21.54;61.30
74403;BME280;62837;51.082;13.744;2022-10-16T11:27:23;100484.98;;;21.54;61.12
74403;BME280;62837;51.082;13.744;2022-10-16T11:30:01;100488.84;;;21.65;61.47
74403;BME280;62837;51.082;13.744;2022-10-16T11:32:36;100489.01;;;21.67;60.97
74403;BME280;62837;51.082;13.744;2022-10-16T11:35:15;100486.14;;;21.65;61.05
74403;BME280;62837;51.082;13.744;2022-10-16T11:37:51;100492.22;;;21.64;61.38
74403;BME280;62837;51.082;13.744;2022-10-16T11:40:28;100494.23;;;21.59;61.27
74403;BME280;62837;51.082;13.744;2022-10-16T11:43:04;100498.15;;;21.54;60.62
74403;BME280;62837;51.082;13.744;2022-10-16T11:45:44;100496.52;;;21.49;60.62
74403;BME280;62837;51.082;13.744;2022-10-16T11:48:24;100497.35;;;21.47;60.71
74403;BME280;62837;51.082;13.744;2022-10-16T11:50:59;100498.31;;;21.47;60.65
74403;BME280;62837;51.082;13.744;2022-10-16T11:53:42;100504.52;;;21.46;60.80
74403;BME280;62837;51.082;13.744;2022-10-16T11:56:17;100507.54;;;21.54;61.11
74403;BME280;62837;51.082;13.744;2022-10-16T11:58:55;100508.69;;;21.60;60.94
74403;BME280;62837;51.082;13.744;2022-10-16T12:01:32;100512.51;;;21.60;60.82
74403;BME280;62837;51.082;13.744;2022-10-16T12:04:14;100508.95;;;21.64;61.05
74403;BME280;62837;51.082;13.744;2022-10-16T12:06:50;100514.67;;;21.77;61.26
74403;BME280;62837;51.082;13.744;2022-10-16T12:09:26;100504.55;;;21.86;61.09
74403;BME280;62837;51.082;13.744;2022-10-16T12:11:58;100506.44;;;21.98;60.37
74403;BME280;62837;51.082;13.744;2022-10-16T12:14:39;100500.98;;;22.07;59.70
74403;BME280;62837;51.082;13.744;2022-10-16T12:17:36;100501.75;;;22.13;59.66
74403;BME280;62837;51.082;13.744;2022-10-16T12:20:36;100505.00;;;22.11;59.65
74403;BME280;62837;51.082;13.744;2022-10-16T12:23:16;100509.44;;;22.08;59.93
74403;BME280;62837;51.082;13.744;2022-10-16T12:25:56;100503.42;;;22.02;59.17
74403;BME280;62837;51.082;13.744;2022-10-16T12:28:30;100502.52;;;21.95;59.13
74403;BME280;62837;51.082;13.744;2022-10-16T12:31:03;100505.89;;;21.88;59.66
74403;BME280;62837;51.082;13.744;2022-10-16T12:33:36;100516.02;;;21.82;59.79
74403;BME280;62837;51.082;13.744;2022-10-16T12:36:14;100515.92;;;21.81;60.08
74403;BME280;62837;51.082;13.744;2022-10-16T12:38:50;100517.52;;;21.83;59.64
74403;BME280;62837;51.082;13.744;2022-10-16T12:41:27;100512.95;;;21.83;59.63
74403;BME280;62837;51.082;13.744;2022-10-16T12:43:59;100509.02;;;21.83;59.66
74403;BME280;62837;51.082;13.744;2022-10-16T12:46:41;100514.90;;;21.85;59.88
74403;BME280;62837;51.082;13.744;2022-10-16T12:49:30;100517.86;;;21.94;60.29
74403;BME280;62837;51.082;13.744;2022-10-16T12:52:00;100528.13;;;22.01;59.59
74403;BME280;62837;51.082;13.744;2022-10-16T12:54:34;100529.96;;;22.01;59.22
74403;BME280;62837;51.082;13.744;2022-10-16T12:57:24;100529.31;;;22.07;59.58
74403;BME280;62837;51.082;13.744;2022-10-16T13:00:13;100528.30;;;22.05;59.28
74403;BME280;62837;51.082;13.744;2022-10-16T13:06:00;100533.08;;;21.89;59.29
74403;BME280;62837;51.082;13.744;2022-10-16T13:08:46;100535.98;;;21.79;59.69
74403;BME280;62837;51.082;13.744;2022-10-16T13:11:29;100535.88;;;21.70;60.10
74403;BME280;62837;51.082;13.744;2022-10-16T13:14:22;100533.78;;;21.63;60.00
74403;BME280;62837;51.082;13.744;2022-10-16T13:17:04;100540.27;;;21.57;60.13
74403;BME280;62837;51.082;13.744;2022-10-16T13:19:42;100541.35;;;21.52;60.79
74403;BME280;62837;51.082;13.744;2022-10-16T13:22:20;100535.54;;;21.48;60.69
74403;BME280;62837;51.082;13.744;2022-10-16T13:25:05;100539.40;;;21.45;60.88